Agency, Missouri
Current Conditions -  °F | °C
As of 6:53 AM on Sunday 21 Dec 2014 (Local Time) from KSTJ Reporting Station
Overcast Overcast  
Wind Chill: 28°   Ceiling: 1600
Heat Index: 37°   Visibility: 9mi
Dew Point: 34°   Wind: 14mph
Humidity: 89%   Direction: 160°SSE
Pressure: 30.03"   Gusts: NA
Location:  39.64°N, 94.74°W
Report Text: KSTJ 211253Z AUTO 16012KT 9SM OVC016 03/01 A3003 RMK AO2 SLP173 T00280011
Loading
Personal Weather Stations






























Interactive Weather Map New forecast layout! Learn more

10-Day Weather Forecast

Advertisements
Track Severe Weather on mobile